Stations météo

réclame
Mon MeteoGroup
Bari, Italie (16271): Température de l'air & dewpoint: 12.12.2017 04:00:00 - 18.12.2017 04:00:00 (CET)Bari, Italie (16271): Vitesse du vent: 12.12.2017 04:00:00 - 18.12.2017 04:00:00 (CET)Bari, Italie (16271): Direction du vent: 12.12.2017 04:00:00 - 18.12.2017 04:00:00 (CET)Bari, Italie (16271): reduced air pressure: 12.12.2017 04:00:00 - 18.12.2017 04:00:00 (CET)Bari, Italie (16271): Quantités de précipitations: 12.12.2017 04:00:00 - 18.12.2017 04:00:00 (CET)
Date & Time tt [°C] td [°C] ff [km/h] ff [knt] dd ppp [hPa] rr [mm]
18.12.2017 04:00:00 - - - - - - -
18.12.2017 03:00:00 6,3 2,9 28 15 W 1018,7 -
18.12.2017 02:00:00 6,2 3,1 28 15 W 1018,8 -
18.12.2017 01:00:00 6,5 3,3 22 12 WNW 1018,4 0,0
18.12.2017 00:00:00 6,9 3,5 29 16 W 1018,0 -
17.12.2017 23:00:00 6,9 3,8 26 14 WSW 1018,0 -
17.12.2017 22:00:00 7,7 4,4 22 12 W 1017,6 -
17.12.2017 21:00:00 7,9 4,4 24 13 W 1016,9 -
17.12.2017 20:00:00 8,7 5,2 22 12 WNW 1016,5 -
17.12.2017 19:00:00 8,5 5,4 26 14 WNW 1015,9 -
17.12.2017 18:00:00 8,2 6,6 24 13 W 1014,8 -
17.12.2017 17:00:00 9,0 5,7 28 15 WSW 1014,0 -
17.12.2017 16:00:00 10,2 5,9 26 14 W 1013,4 -
17.12.2017 15:00:00 11,0 5,3 28 15 WSW 1012,6 -
17.12.2017 14:00:00 11,2 4,6 28 15 W 1012,4 -
17.12.2017 13:00:00 10,9 4,7 26 14 W 1012,3 0,0
17.12.2017 12:00:00 11,3 4,7 22 12 WSW 1012,6 -
17.12.2017 11:00:00 10,4 4,0 22 12 W 1012,9 -
17.12.2017 10:00:00 9,5 4,6 16 9 WNW 1012,7 -
17.12.2017 09:00:00 8,7 4,5 16 9 WSW 1012,3 -
17.12.2017 08:00:00 8,2 4,0 15 8 WSW 1011,5 -
17.12.2017 07:00:00 8,3 3,5 21 11 W 1011,0 0,0
17.12.2017 06:00:00 9,3 3,0 15 8 SSW 1010,3 -
17.12.2017 05:00:00 10,0 4,1 8 4 SSW 1010,1 -
17.12.2017 04:00:00 10,6 4,2 4 2 SSW 1010,2 -
17.12.2017 03:00:00 11,1 4,5 5 3 SSW 1010,1 -
17.12.2017 02:00:00 11,0 4,6 13 7 SSW 1009,7 -
17.12.2017 01:00:00 11,3 4,0 5 3 SSW 1009,5 0,0
17.12.2017 00:00:00 11,6 4,0 13 7 WSW 1009,8 -
16.12.2017 23:00:00 11,9 4,5 15 8 WSW 1009,6 -
16.12.2017 22:00:00 12,3 5,2 9 5 SSW 1009,1 -
16.12.2017 21:00:00 11,8 4,9 9 5 SSE 1008,7 -
16.12.2017 20:00:00 13,1 4,7 13 7 WSW 1008,5 -
16.12.2017 19:00:00 12,6 4,2 11 6 SW 1008,0 0,0
16.12.2017 18:00:00 12,1 3,5 11 6 S 1007,7 -
16.12.2017 17:00:00 12,8 2,0 9 5 S 1007,4 -
16.12.2017 16:00:00 13,1 4,2 13 7 S 1007,5 -
16.12.2017 15:00:00 12,8 6,3 13 7 SSE 1007,4 -
16.12.2017 14:00:00 13,2 5,0 5 3 W 1007,4 -
16.12.2017 13:00:00 14,3 2,4 8 4 W 1007,4 0,0
16.12.2017 12:00:00 13,8 5,4 5 3 NW 1007,3 -
16.12.2017 11:00:00 13,7 6,5 9 5 NW 1008,0 -
16.12.2017 10:00:00 13,6 6,9 13 7 SW 1007,5 -
16.12.2017 09:00:00 13,3 6,8 9 5 SW 1006,7 -
16.12.2017 08:00:00 12,9 6,9 8 4 SW 1006,6 -
16.12.2017 07:00:00 13,8 9,2 15 8 W 1006,1 -
16.12.2017 06:00:00 14,0 11,7 13 7 NW 1005,0 -
16.12.2017 05:00:00 13,7 10,3 9 5 NNW 1003,8 -
16.12.2017 04:00:00 14,1 9,7 5 3 NW 1003,2 -
16.12.2017 03:00:00 16,6 7,5 24 13 S 1001,4 -
16.12.2017 02:00:00 16,3 6,6 24 13 S 1001,7 -
16.12.2017 01:00:00 16,0 4,3 15 8 S 1002,2 0,0
16.12.2017 00:00:00 16,1 3,8 22 12 SSE 1002,1 -
15.12.2017 23:00:00 16,1 3,1 24 13 S 1002,4 -
15.12.2017 22:00:00 15,9 2,6 24 13 S 1002,6 -
15.12.2017 21:00:00 15,6 1,9 15 8 SSW 1003,2 -
15.12.2017 20:00:00 15,9 0,7 26 14 SSE 1003,9 -
15.12.2017 19:00:00 15,3 6,0 28 15 S 1003,6 0,0
15.12.2017 18:00:00 15,7 6,9 18 10 S 1004,8 -
15.12.2017 17:00:00 15,7 8,6 22 12 S 1005,6 -
15.12.2017 16:00:00 15,6 8,5 16 9 SSE 1005,8 -
15.12.2017 15:00:00 15,2 8,8 18 10 SSE 1006,0 -
15.12.2017 14:00:00 15,3 8,7 13 7 SSE 1006,8 -
15.12.2017 13:00:00 15,5 9,1 18 10 S 1007,4 0,0
15.12.2017 12:00:00 15,9 9,0 18 10 SSE 1008,2 -
15.12.2017 11:00:00 15,7 9,3 18 10 SSE 1009,5 -
15.12.2017 10:00:00 15,6 10,3 22 12 S 1009,8 -
15.12.2017 09:00:00 15,5 10,4 24 13 S 1010,1 -
15.12.2017 08:00:00 15,3 10,4 15 8 S 1010,2 -
15.12.2017 07:00:00 15,9 10,6 22 12 SSW 1010,1 0,0
15.12.2017 06:00:00 15,1 10,5 18 10 S 1009,9 -
15.12.2017 05:00:00 14,2 10,0 15 8 S 1009,8 -
15.12.2017 04:00:00 14,1 10,1 15 8 S 1010,8 -
15.12.2017 03:00:00 14,0 10,0 11 6 S 1012,0 -
15.12.2017 02:00:00 13,9 9,7 15 8 S 1012,3 -
15.12.2017 01:00:00 13,5 9,5 16 9 S 1012,5 0,0
15.12.2017 00:00:00 13,6 9,4 18 10 S 1013,0 -
14.12.2017 23:00:00 13,3 8,3 21 11 S 1013,4 -
14.12.2017 22:00:00 13,1 7,7 18 10 S 1013,9 -
14.12.2017 21:00:00 13,2 7,6 13 7 S 1014,3 -
14.12.2017 20:00:00 12,9 7,7 16 9 S 1014,4 -
14.12.2017 19:00:00 13,4 7,6 15 8 S 1015,2 0,0
14.12.2017 18:00:00 13,8 7,5 13 7 S 1014,9 -
14.12.2017 17:00:00 14,6 7,1 9 5 S 1015,2 -
14.12.2017 16:00:00 15,4 6,1 8 4 S 1015,0 -
14.12.2017 15:00:00 15,6 6,2 15 8 SW 1014,8 -
14.12.2017 14:00:00 15,9 7,1 15 8 WSW 1015,1 -
14.12.2017 13:00:00 15,7 7,1 22 12 SSW 1015,3 0,0
14.12.2017 12:00:00 15,4 6,6 22 12 SSW 1015,9 -
14.12.2017 11:00:00 14,6 6,9 15 8 SSW 1016,5 -
14.12.2017 10:00:00 13,0 5,6 11 6 SSW 1017,4 -
14.12.2017 09:00:00 11,8 4,4 13 7 SSW 1017,2 -
14.12.2017 08:00:00 9,8 4,1 8 4 SSE 1017,1 -
14.12.2017 07:00:00 9,5 3,6 9 5 SSE 1017,0 0,0
14.12.2017 06:00:00 10,2 4,3 11 6 SSW 1017,1 -
14.12.2017 05:00:00 8,8 4,0 13 7 S 1017,0 -
14.12.2017 04:00:00 9,9 4,6 11 6 S 1017,4 -
14.12.2017 03:00:00 10,4 4,9 13 7 SW 1017,8 -
14.12.2017 02:00:00 10,5 5,8 11 6 SSW 1017,8 -
14.12.2017 01:00:00 10,7 6,6 4 2 SSW 1018,1 0,0
14.12.2017 00:00:00 11,1 7,0 9 5 WSW 1018,3 -
13.12.2017 23:00:00 11,8 7,5 9 5 SW 1018,4 -
13.12.2017 22:00:00 12,3 7,7 9 5 SW 1018,3 -
13.12.2017 21:00:00 13,0 9,0 8 4 SSW 1018,2 -
13.12.2017 20:00:00 13,3 9,1 11 6 SW 1018,2 -
13.12.2017 19:00:00 13,4 11,1 9 5 SSW 1018,1 -
13.12.2017 18:00:00 13,6 10,6 5 3 WSW 1018,4 -
13.12.2017 17:00:00 13,5 9,9 2 1 WSW 1018,4 -
13.12.2017 16:00:00 14,0 10,0 4 2 WSW 1018,5 -
13.12.2017 15:00:00 14,6 10,2 8 4 WSW 1018,3 -
13.12.2017 14:00:00 15,4 10,5 18 10 WNW 1018,6 -
13.12.2017 13:00:00 15,2 11,0 21 11 NW 1018,7 0,0
13.12.2017 12:00:00 16,2 7,3 9 5 SW 1018,8 -
13.12.2017 11:00:00 16,3 7,2 13 7 SSW 1019,2 -
13.12.2017 10:00:00 16,5 6,3 15 8 SW 1019,5 -
13.12.2017 09:00:00 17,2 5,4 22 12 SSW 1019,5 -
13.12.2017 08:00:00 15,1 8,3 16 9 SW 1019,5 -
13.12.2017 07:00:00 14,3 9,5 2 1 SW 1019,2 0,0
13.12.2017 06:00:00 13,5 8,9 4 2 S 1018,7 -
13.12.2017 05:00:00 13,6 8,6 4 2 S 1018,7 -
13.12.2017 04:00:00 13,5 8,1 8 4 S 1018,5 -
13.12.2017 03:00:00 13,9 7,8 8 4 S 1018,7 -
13.12.2017 02:00:00 14,5 8,2 11 6 S 1018,8 -
13.12.2017 01:00:00 15,1 8,3 9 5 S 1018,9 0,0
13.12.2017 00:00:00 14,3 8,4 15 8 S 1018,9 -
12.12.2017 23:00:00 14,5 9,3 15 8 S 1019,0 -
12.12.2017 22:00:00 14,6 10,2 18 10 S 1018,8 -
12.12.2017 21:00:00 15,0 10,6 18 10 S 1018,7 -
12.12.2017 20:00:00 15,6 10,5 16 9 S 1018,4 -
12.12.2017 19:00:00 15,5 10,0 15 8 SSW 1018,0 0,0
12.12.2017 18:00:00 16,2 9,6 21 11 S 1017,4 -
12.12.2017 17:00:00 17,1 9,5 22 12 SSW 1017,0 -
12.12.2017 16:00:00 18,2 10,3 21 11 S 1016,9 -
12.12.2017 15:00:00 19,5 10,4 21 11 S 1016,6 -
12.12.2017 14:00:00 19,8 9,0 11 6 SSE 1016,6 -
12.12.2017 13:00:00 19,7 9,2 21 11 SSW 1016,4 0,0
12.12.2017 12:00:00 19,6 9,7 18 10 SSE 1016,5 -
12.12.2017 11:00:00 19,1 10,8 13 7 SSE 1017,3 -
12.12.2017 10:00:00 17,5 11,7 13 7 S 1017,3 -
12.12.2017 09:00:00 15,8 11,3 18 10 S 1016,6 -
12.12.2017 08:00:00 14,1 11,0 18 10 S 1016,6 -
12.12.2017 07:00:00 14,2 11,1 21 11 S 1016,2 0,0
12.12.2017 06:00:00 14,0 11,5 15 8 S 1015,5 -
12.12.2017 05:00:00 14,7 12,2 21 11 SSE 1015,0 -
12.12.2017 04:00:00 14,7 12,0 11 6 S 1015,0 -

tt = Température de l'air
td = dewpoint
ff = Vitesse du vent
dd = Direction du vent
ppp = reduced air pressure
rr = Quantités de précipitations

stations d'obs. à proximité